Terminal Aerodrome Forecast
Issued by NWS Lubbock, TX

Home | Current Version | Previous Version | Text Only | Print | Product List | Glossary On
Versions: 1 2 3 4 5 6 7 8 9 10 11 12 13
256
FTUS44 KLUB 130918 AAA
TAFLBB
TAF AMD
KLBB 130918Z 1309/1406 14008KT P6SM SKC
     FM131800 19015G22KT P6SM FEW250=

USA.gov is the U.S. government's official web portal to all federal, state and local government web resources and services.